sensor_id;sensor_type;location;lat;lon;timestamp;temperature;humidity
25652;DHT22;13508;50.734;4.232;2022-09-13T00:02:17;19.00;99.90
25652;DHT22;13508;50.734;4.232;2022-09-13T00:05:20;18.80;99.90
25652;DHT22;13508;50.734;4.232;2022-09-13T00:08:24;19.00;99.90
25652;DHT22;13508;50.734;4.232;2022-09-13T00:11:29;19.20;99.90
25652;DHT22;13508;50.734;4.232;2022-09-13T00:14:33;19.30;99.90
25652;DHT22;13508;50.734;4.232;2022-09-13T00:17:36;19.30;99.90
25652;DHT22;13508;50.734;4.232;2022-09-13T00:20:40;19.50;99.90
25652;DHT22;13508;50.734;4.232;2022-09-13T00:23:49;19.80;99.90
25652;DHT22;13508;50.734;4.232;2022-09-13T00:26:52;19.70;99.90
25652;DHT22;13508;50.734;4.232;2022-09-13T00:29:55;19.60;99.90
25652;DHT22;13508;50.734;4.232;2022-09-13T00:32:59;19.60;99.90
25652;DHT22;13508;50.734;4.232;2022-09-13T00:36:09;19.60;99.90
25652;DHT22;13508;50.734;4.232;2022-09-13T00:39:13;19.50;99.90
25652;DHT22;13508;50.734;4.232;2022-09-13T00:42:17;19.30;99.90
25652;DHT22;13508;50.734;4.232;2022-09-13T00:45:20;19.20;99.90
25652;DHT22;13508;50.734;4.232;2022-09-13T00:48:24;19.30;99.90
25652;DHT22;13508;50.734;4.232;2022-09-13T00:51:28;19.70;99.90
25652;DHT22;13508;50.734;4.232;2022-09-13T00:54:39;19.90;99.90
25652;DHT22;13508;50.734;4.232;2022-09-13T00:57:43;20.00;99.90
25652;DHT22;13508;50.734;4.232;2022-09-13T01:00:47;20.00;99.90
25652;DHT22;13508;50.734;4.232;2022-09-13T01:03:52;20.00;99.90
25652;DHT22;13508;50.734;4.232;2022-09-13T01:06:58;20.10;99.90
25652;DHT22;13508;50.734;4.232;2022-09-13T01:10:04;20.10;99.90
25652;DHT22;13508;50.734;4.232;2022-09-13T01:13:17;19.90;99.90
25652;DHT22;13508;50.734;4.232;2022-09-13T01:16:20;19.60;99.90
25652;DHT22;13508;50.734;4.232;2022-09-13T01:19:24;19.30;99.90
25652;DHT22;13508;50.734;4.232;2022-09-13T01:36:43;19.20;99.90
25652;DHT22;13508;50.734;4.232;2022-09-13T01:40:50;19.40;99.90
25652;DHT22;13508;50.734;4.232;2022-09-13T01:44:07;19.60;99.90
25652;DHT22;13508;50.734;4.232;2022-09-13T01:57:20;19.40;99.90
25652;DHT22;13508;50.734;4.232;2022-09-13T02:00:26;19.50;99.90
25652;DHT22;13508;50.734;4.232;2022-09-13T02:03:36;19.50;99.90
25652;DHT22;13508;50.734;4.232;2022-09-13T02:06:47;19.50;99.90
25652;DHT22;13508;50.734;4.232;2022-09-13T02:09:57;19.70;99.90
25652;DHT22;13508;50.734;4.232;2022-09-13T02:13:04;19.80;99.90
25652;DHT22;13508;50.734;4.232;2022-09-13T02:16:25;20.00;99.90
25652;DHT22;13508;50.734;4.232;2022-09-13T02:19:35;19.90;99.90
25652;DHT22;13508;50.734;4.232;2022-09-13T02:22:43;19.80;99.90
25652;DHT22;13508;50.734;4.232;2022-09-13T02:25:50;19.70;99.90
25652;DHT22;13508;50.734;4.232;2022-09-13T02:28:57;19.70;99.90
25652;DHT22;13508;50.734;4.232;2022-09-13T02:32:11;19.60;99.90
25652;DHT22;13508;50.734;4.232;2022-09-13T02:35:23;19.70;99.90
25652;DHT22;13508;50.734;4.232;2022-09-13T02:38:40;19.80;99.90
25652;DHT22;13508;50.734;4.232;2022-09-13T02:45:31;19.60;99.90
25652;DHT22;13508;50.734;4.232;2022-09-13T02:49:51;19.60;99.90
25652;DHT22;13508;50.734;4.232;2022-09-13T02:52:45;19.70;99.90
25652;DHT22;13508;50.734;4.232;2022-09-13T02:59:28;19.80;99.90
25652;DHT22;13508;50.734;4.232;2022-09-13T03:02:33;19.80;99.90
25652;DHT22;13508;50.734;4.232;2022-09-13T03:05:36;19.70;99.90
25652;DHT22;13508;50.734;4.232;2022-09-13T03:08:40;20.00;99.90
25652;DHT22;13508;50.734;4.232;2022-09-13T03:15:03;20.10;99.90
25652;DHT22;13508;50.734;4.232;2022-09-13T03:18:24;20.00;99.90
25652;DHT22;13508;50.734;4.232;2022-09-13T03:31:25;19.70;99.90
25652;DHT22;13508;50.734;4.232;2022-09-13T03:37:50;19.90;99.90
25652;DHT22;13508;50.734;4.232;2022-09-13T03:41:23;20.10;99.90
25652;DHT22;13508;50.734;4.232;2022-09-13T03:44:28;20.30;99.90
25652;DHT22;13508;50.734;4.232;2022-09-13T03:47:35;20.10;99.90
25652;DHT22;13508;50.734;4.232;2022-09-13T03:50:39;20.10;99.90
25652;DHT22;13508;50.734;4.232;2022-09-13T03:53:53;20.10;99.90
25652;DHT22;13508;50.734;4.232;2022-09-13T03:57:12;20.10;99.90
25652;DHT22;13508;50.734;4.232;2022-09-13T04:00:17;20.20;99.90
25652;DHT22;13508;50.734;4.232;2022-09-13T04:03:20;20.20;99.90
25652;DHT22;13508;50.734;4.232;2022-09-13T04:06:24;20.20;99.90
25652;DHT22;13508;50.734;4.232;2022-09-13T04:09:27;20.20;99.90
25652;DHT22;13508;50.734;4.232;2022-09-13T04:12:30;20.20;99.90
25652;DHT22;13508;50.734;4.232;2022-09-13T04:15:34;20.00;99.90
25652;DHT22;13508;50.734;4.232;2022-09-13T04:18:37;20.20;99.90
25652;DHT22;13508;50.734;4.232;2022-09-13T04:21:40;20.20;99.90
25652;DHT22;13508;50.734;4.232;2022-09-13T04:24:43;20.20;99.90
25652;DHT22;13508;50.734;4.232;2022-09-13T04:27:52;20.20;99.90
25652;DHT22;13508;50.734;4.232;2022-09-13T04:30:55;20.30;99.90
25652;DHT22;13508;50.734;4.232;2022-09-13T04:33:58;20.30;99.90
25652;DHT22;13508;50.734;4.232;2022-09-13T04:37:02;20.30;99.90
25652;DHT22;13508;50.734;4.232;2022-09-13T04:40:06;20.10;99.90
25652;DHT22;13508;50.734;4.232;2022-09-13T04:43:09;20.10;99.90
25652;DHT22;13508;50.734;4.232;2022-09-13T04:46:12;20.10;99.90
25652;DHT22;13508;50.734;4.232;2022-09-13T04:49:16;19.90;99.90
25652;DHT22;13508;50.734;4.232;2022-09-13T04:52:20;19.80;99.90
25652;DHT22;13508;50.734;4.232;2022-09-13T04:55:23;19.90;99.90
25652;DHT22;13508;50.734;4.232;2022-09-13T04:58:28;19.70;99.90
25652;DHT22;13508;50.734;4.232;2022-09-13T05:01:31;19.70;99.90
25652;DHT22;13508;50.734;4.232;2022-09-13T05:04:35;19.40;99.90
25652;DHT22;13508;50.734;4.232;2022-09-13T05:07:38;19.40;99.90
25652;DHT22;13508;50.734;4.232;2022-09-13T05:10:41;19.40;99.90
25652;DHT22;13508;50.734;4.232;2022-09-13T05:13:48;19.40;99.90
25652;DHT22;13508;50.734;4.232;2022-09-13T05:16:55;19.40;99.90
25652;DHT22;13508;50.734;4.232;2022-09-13T05:19:58;19.30;99.90
25652;DHT22;13508;50.734;4.232;2022-09-13T05:23:01;19.30;99.90
25652;DHT22;13508;50.734;4.232;2022-09-13T05:26:06;19.30;99.90
25652;DHT22;13508;50.734;4.232;2022-09-13T05:29:09;19.40;99.90
25652;DHT22;13508;50.734;4.232;2022-09-13T05:32:12;19.40;99.90
25652;DHT22;13508;50.734;4.232;2022-09-13T05:35:15;19.60;99.90
25652;DHT22;13508;50.734;4.232;2022-09-13T05:38:19;19.60;99.90
25652;DHT22;13508;50.734;4.232;2022-09-13T05:41:23;19.70;99.90
25652;DHT22;13508;50.734;4.232;2022-09-13T05:44:26;19.70;99.90
25652;DHT22;13508;50.734;4.232;2022-09-13T05:47:29;19.60;99.90
25652;DHT22;13508;50.734;4.232;2022-09-13T05:50:36;19.60;99.90
25652;DHT22;13508;50.734;4.232;2022-09-13T05:53:41;19.60;99.90
25652;DHT22;13508;50.734;4.232;2022-09-13T05:56:45;19.90;99.90
25652;DHT22;13508;50.734;4.232;2022-09-13T05:59:47;19.90;99.90
25652;DHT22;13508;50.734;4.232;2022-09-13T06:02:51;20.00;99.90
25652;DHT22;13508;50.734;4.232;2022-09-13T06:05:55;19.90;99.90
25652;DHT22;13508;50.734;4.232;2022-09-13T06:08:59;19.80;99.90
25652;DHT22;13508;50.734;4.232;2022-09-13T06:12:03;19.80;99.90
25652;DHT22;13508;50.734;4.232;2022-09-13T06:15:07;19.80;99.90
25652;DHT22;13508;50.734;4.232;2022-09-13T06:18:11;19.80;99.90
25652;DHT22;13508;50.734;4.232;2022-09-13T06:21:17;19.90;99.90
25652;DHT22;13508;50.734;4.232;2022-09-13T06:24:20;20.00;99.90
25652;DHT22;13508;50.734;4.232;2022-09-13T06:27:24;19.80;99.90
25652;DHT22;13508;50.734;4.232;2022-09-13T06:30:27;19.90;99.90
25652;DHT22;13508;50.734;4.232;2022-09-13T06:33:31;19.80;99.90
25652;DHT22;13508;50.734;4.232;2022-09-13T06:36:35;19.80;99.90
25652;DHT22;13508;50.734;4.232;2022-09-13T06:39:38;19.80;99.90
25652;DHT22;13508;50.734;4.232;2022-09-13T06:42:42;19.90;99.90
25652;DHT22;13508;50.734;4.232;2022-09-13T06:45:46;20.00;99.90
25652;DHT22;13508;50.734;4.232;2022-09-13T06:48:49;20.10;99.90
25652;DHT22;13508;50.734;4.232;2022-09-13T06:51:52;20.10;99.90
25652;DHT22;13508;50.734;4.232;2022-09-13T06:54:56;20.50;99.90
25652;DHT22;13508;50.734;4.232;2022-09-13T06:58:00;20.60;99.90
25652;DHT22;13508;50.734;4.232;2022-09-13T07:01:13;20.50;99.90
25652;DHT22;13508;50.734;4.232;2022-09-13T07:04:17;20.60;99.90
25652;DHT22;13508;50.734;4.232;2022-09-13T07:07:24;20.40;99.90
25652;DHT22;13508;50.734;4.232;2022-09-13T07:10:28;20.10;99.90
25652;DHT22;13508;50.734;4.232;2022-09-13T07:13:32;20.10;99.90
25652;DHT22;13508;50.734;4.232;2022-09-13T07:16:36;20.10;99.90
25652;DHT22;13508;50.734;4.232;2022-09-13T07:19:40;20.20;99.90
25652;DHT22;13508;50.734;4.232;2022-09-13T07:22:43;20.40;99.90
25652;DHT22;13508;50.734;4.232;2022-09-13T07:25:53;20.30;99.90
25652;DHT22;13508;50.734;4.232;2022-09-13T07:28:59;20.30;99.90
25652;DHT22;13508;50.734;4.232;2022-09-13T07:32:02;20.10;99.90
25652;DHT22;13508;50.734;4.232;2022-09-13T07:35:06;20.40;99.90
25652;DHT22;13508;50.734;4.232;2022-09-13T07:38:10;20.80;99.90
25652;DHT22;13508;50.734;4.232;2022-09-13T07:41:16;20.90;99.90
25652;DHT22;13508;50.734;4.232;2022-09-13T07:44:19;20.80;99.90
25652;DHT22;13508;50.734;4.232;2022-09-13T07:47:22;20.90;99.90
25652;DHT22;13508;50.734;4.232;2022-09-13T07:50:26;21.20;99.90
25652;DHT22;13508;50.734;4.232;2022-09-13T07:53:30;21.30;99.90
25652;DHT22;13508;50.734;4.232;2022-09-13T07:56:36;21.50;99.90
25652;DHT22;13508;50.734;4.232;2022-09-13T07:59:39;21.70;99.90
25652;DHT22;13508;50.734;4.232;2022-09-13T08:02:43;21.50;99.90
25652;DHT22;13508;50.734;4.232;2022-09-13T08:05:46;21.60;99.90
25652;DHT22;13508;50.734;4.232;2022-09-13T08:08:49;22.00;99.90
25652;DHT22;13508;50.734;4.232;2022-09-13T08:11:52;22.70;99.90
25652;DHT22;13508;50.734;4.232;2022-09-13T08:14:56;23.40;99.90
25652;DHT22;13508;50.734;4.232;2022-09-13T08:18:00;23.70;99.90
25652;DHT22;13508;50.734;4.232;2022-09-13T08:21:03;24.10;99.90
25652;DHT22;13508;50.734;4.232;2022-09-13T08:24:12;24.60;99.90
25652;DHT22;13508;50.734;4.232;2022-09-13T08:27:15;24.90;99.90
25652;DHT22;13508;50.734;4.232;2022-09-13T08:30:18;25.20;99.90
25652;DHT22;13508;50.734;4.232;2022-09-13T08:33:21;24.80;99.90
25652;DHT22;13508;50.734;4.232;2022-09-13T08:36:26;24.50;99.90
25652;DHT22;13508;50.734;4.232;2022-09-13T08:39:30;24.20;99.90
25652;DHT22;13508;50.734;4.232;2022-09-13T08:42:49;23.90;99.90
25652;DHT22;13508;50.734;4.232;2022-09-13T08:46:22;23.80;99.90
25652;DHT22;13508;50.734;4.232;2022-09-13T08:49:31;24.00;99.90
25652;DHT22;13508;50.734;4.232;2022-09-13T08:56:06;24.30;99.90
25652;DHT22;13508;50.734;4.232;2022-09-13T08:59:30;24.60;99.90
25652;DHT22;13508;50.734;4.232;2022-09-13T09:06:16;25.10;99.90
25652;DHT22;13508;50.734;4.232;2022-09-13T09:09:21;25.60;99.90
25652;DHT22;13508;50.734;4.232;2022-09-13T09:16:05;26.70;99.90
25652;DHT22;13508;50.734;4.232;2022-09-13T09:19:20;26.80;99.90
25652;DHT22;13508;50.734;4.232;2022-09-13T09:22:28;26.50;99.90
25652;DHT22;13508;50.734;4.232;2022-09-13T09:25:33;26.40;99.90
25652;DHT22;13508;50.734;4.232;2022-09-13T09:28:37;26.40;99.90
25652;DHT22;13508;50.734;4.232;2022-09-13T09:31:57;26.40;99.90
25652;DHT22;13508;50.734;4.232;2022-09-13T09:38:41;26.20;99.90
25652;DHT22;13508;50.734;4.232;2022-09-13T09:41:45;26.50;99.90
25652;DHT22;13508;50.734;4.232;2022-09-13T09:44:51;26.40;99.90
25652;DHT22;13508;50.734;4.232;2022-09-13T09:47:59;26.40;99.90
25652;DHT22;13508;50.734;4.232;2022-09-13T09:51:04;26.40;99.90
25652;DHT22;13508;50.734;4.232;2022-09-13T09:54:12;26.30;99.90
25652;DHT22;13508;50.734;4.232;2022-09-13T09:57:15;26.40;99.90
25652;DHT22;13508;50.734;4.232;2022-09-13T10:00:23;26.60;99.90
25652;DHT22;13508;50.734;4.232;2022-09-13T10:03:31;27.20;99.90
25652;DHT22;13508;50.734;4.232;2022-09-13T10:06:40;27.20;99.90
25652;DHT22;13508;50.734;4.232;2022-09-13T10:10:02;27.30;99.90
25652;DHT22;13508;50.734;4.232;2022-09-13T10:13:23;28.10;99.90
25652;DHT22;13508;50.734;4.232;2022-09-13T10:16:29;28.00;99.90
25652;DHT22;13508;50.734;4.232;2022-09-13T10:19:33;27.90;99.90
25652;DHT22;13508;50.734;4.232;2022-09-13T10:22:36;27.80;99.90
25652;DHT22;13508;50.734;4.232;2022-09-13T10:25:42;27.40;99.90
25652;DHT22;13508;50.734;4.232;2022-09-13T10:29:05;27.30;99.90
25652;DHT22;13508;50.734;4.232;2022-09-13T10:32:09;26.90;99.90
25652;DHT22;13508;50.734;4.232;2022-09-13T10:35:16;26.40;99.90
25652;DHT22;13508;50.734;4.232;2022-09-13T10:38:35;25.80;99.90
25652;DHT22;13508;50.734;4.232;2022-09-13T10:41:40;25.40;99.90
25652;DHT22;13508;50.734;4.232;2022-09-13T10:44:56;25.40;99.90
25652;DHT22;13508;50.734;4.232;2022-09-13T10:48:11;25.60;99.90
25652;DHT22;13508;50.734;4.232;2022-09-13T10:51:20;25.80;99.90
25652;DHT22;13508;50.734;4.232;2022-09-13T10:54:30;25.90;99.90
25652;DHT22;13508;50.734;4.232;2022-09-13T10:57:36;26.10;99.90
25652;DHT22;13508;50.734;4.232;2022-09-13T11:11:24;26.20;99.90
25652;DHT22;13508;50.734;4.232;2022-09-13T11:14:39;26.40;99.90
25652;DHT22;13508;50.734;4.232;2022-09-13T11:18:18;26.30;99.90
25652;DHT22;13508;50.734;4.232;2022-09-13T11:24:59;26.20;99.90
25652;DHT22;13508;50.734;4.232;2022-09-13T11:28:19;26.40;99.90
25652;DHT22;13508;50.734;4.232;2022-09-13T11:31:41;26.40;99.90
25652;DHT22;13508;50.734;4.232;2022-09-13T11:56:00;26.00;99.90
25652;DHT22;13508;50.734;4.232;2022-09-13T12:02:45;25.80;99.90
25652;DHT22;13508;50.734;4.232;2022-09-13T12:12:15;25.50;99.90
25652;DHT22;13508;50.734;4.232;2022-09-13T12:15:40;25.70;99.90
25652;DHT22;13508;50.734;4.232;2022-09-13T12:18:48;26.00;99.90
25652;DHT22;13508;50.734;4.232;2022-09-13T12:21:54;26.10;99.90
25652;DHT22;13508;50.734;4.232;2022-09-13T12:25:05;26.20;99.90
25652;DHT22;13508;50.734;4.232;2022-09-13T12:28:33;26.30;99.90
25652;DHT22;13508;50.734;4.232;2022-09-13T12:31:37;26.60;99.90
25652;DHT22;13508;50.734;4.232;2022-09-13T12:34:49;26.60;99.90
25652;DHT22;13508;50.734;4.232;2022-09-13T12:45:24;26.40;99.90
25652;DHT22;13508;50.734;4.232;2022-09-13T12:52:49;26.40;99.90
25652;DHT22;13508;50.734;4.232;2022-09-13T12:59:41;26.30;99.90
25652;DHT22;13508;50.734;4.232;2022-09-13T13:03:05;26.20;99.90
25652;DHT22;13508;50.734;4.232;2022-09-13T13:09:39;25.90;99.90
25652;DHT22;13508;50.734;4.232;2022-09-13T13:12:44;26.00;99.90
25652;DHT22;13508;50.734;4.232;2022-09-13T13:18:52;26.60;99.90
25652;DHT22;13508;50.734;4.232;2022-09-13T13:25:52;26.10;99.90
25652;DHT22;13508;50.734;4.232;2022-09-13T13:29:04;26.10;99.90
25652;DHT22;13508;50.734;4.232;2022-09-13T13:32:13;25.90;99.90
25652;DHT22;13508;50.734;4.232;2022-09-13T13:35:30;25.50;99.90
25652;DHT22;13508;50.734;4.232;2022-09-13T13:38:44;25.30;99.90
25652;DHT22;13508;50.734;4.232;2022-09-13T13:41:56;24.80;99.90
25652;DHT22;13508;50.734;4.232;2022-09-13T13:48:12;24.20;99.90
25652;DHT22;13508;50.734;4.232;2022-09-13T13:51:22;24.10;99.90
25652;DHT22;13508;50.734;4.232;2022-09-13T13:54:31;24.20;99.90
25652;DHT22;13508;50.734;4.232;2022-09-13T13:58:01;24.00;99.90
25652;DHT22;13508;50.734;4.232;2022-09-13T14:01:05;23.70;99.90
25652;DHT22;13508;50.734;4.232;2022-09-13T14:21:26;24.80;99.90
25652;DHT22;13508;50.734;4.232;2022-09-13T14:24:36;25.00;99.90
25652;DHT22;13508;50.734;4.232;2022-09-13T14:27:41;25.20;99.90
25652;DHT22;13508;50.734;4.232;2022-09-13T14:30:46;25.40;99.90
25652;DHT22;13508;50.734;4.232;2022-09-13T14:33:49;25.20;99.90
25652;DHT22;13508;50.734;4.232;2022-09-13T14:37:01;25.20;99.90
25652;DHT22;13508;50.734;4.232;2022-09-13T14:43:19;24.80;99.90
25652;DHT22;13508;50.734;4.232;2022-09-13T14:46:27;24.80;99.90
25652;DHT22;13508;50.734;4.232;2022-09-13T14:49:43;24.60;99.90
25652;DHT22;13508;50.734;4.232;2022-09-13T14:53:01;24.60;99.90
25652;DHT22;13508;50.734;4.232;2022-09-13T14:56:36;24.60;99.90
25652;DHT22;13508;50.734;4.232;2022-09-13T14:59:45;24.60;99.90
25652;DHT22;13508;50.734;4.232;2022-09-13T15:02:59;24.80;99.90
25652;DHT22;13508;50.734;4.232;2022-09-13T15:06:03;24.80;99.90
25652;DHT22;13508;50.734;4.232;2022-09-13T15:12:25;24.70;99.90
25652;DHT22;13508;50.734;4.232;2022-09-13T15:15:36;24.50;99.90
25652;DHT22;13508;50.734;4.232;2022-09-13T15:18:39;24.50;99.90
25652;DHT22;13508;50.734;4.232;2022-09-13T15:21:43;24.20;99.90
25652;DHT22;13508;50.734;4.232;2022-09-13T15:24:57;24.10;99.90
25652;DHT22;13508;50.734;4.232;2022-09-13T15:28:00;23.90;99.90
25652;DHT22;13508;50.734;4.232;2022-09-13T15:31:04;23.90;99.90
25652;DHT22;13508;50.734;4.232;2022-09-13T15:34:25;23.80;99.90
25652;DHT22;13508;50.734;4.232;2022-09-13T15:37:33;23.90;99.90
25652;DHT22;13508;50.734;4.232;2022-09-13T15:40:46;23.90;99.90
25652;DHT22;13508;50.734;4.232;2022-09-13T15:43:50;24.00;99.90
25652;DHT22;13508;50.734;4.232;2022-09-13T15:47:07;24.20;99.90
25652;DHT22;13508;50.734;4.232;2022-09-13T15:50:18;24.50;99.90
25652;DHT22;13508;50.734;4.232;2022-09-13T15:53:22;24.50;99.90
25652;DHT22;13508;50.734;4.232;2022-09-13T15:56:31;24.30;99.90
25652;DHT22;13508;50.734;4.232;2022-09-13T15:59:36;24.10;99.90
25652;DHT22;13508;50.734;4.232;2022-09-13T16:02:39;23.90;99.90
25652;DHT22;13508;50.734;4.232;2022-09-13T16:05:43;23.70;99.90
25652;DHT22;13508;50.734;4.232;2022-09-13T16:08:46;23.60;99.90
25652;DHT22;13508;50.734;4.232;2022-09-13T16:11:51;23.50;99.90
25652;DHT22;13508;50.734;4.232;2022-09-13T16:14:54;23.30;99.90
25652;DHT22;13508;50.734;4.232;2022-09-13T16:17:58;23.40;99.90
25652;DHT22;13508;50.734;4.232;2022-09-13T16:21:02;23.40;99.90
25652;DHT22;13508;50.734;4.232;2022-09-13T16:24:05;23.30;99.90
25652;DHT22;13508;50.734;4.232;2022-09-13T16:27:13;23.20;99.90
25652;DHT22;13508;50.734;4.232;2022-09-13T16:30:18;23.20;99.90
25652;DHT22;13508;50.734;4.232;2022-09-13T16:33:21;23.40;99.90
25652;DHT22;13508;50.734;4.232;2022-09-13T16:36:24;23.50;99.90
25652;DHT22;13508;50.734;4.232;2022-09-13T16:39:30;23.50;99.90
25652;DHT22;13508;50.734;4.232;2022-09-13T16:42:34;23.40;99.90
25652;DHT22;13508;50.734;4.232;2022-09-13T16:45:39;23.30;99.90
25652;DHT22;13508;50.734;4.232;2022-09-13T16:48:42;23.20;99.90
25652;DHT22;13508;50.734;4.232;2022-09-13T16:51:46;23.20;99.90
25652;DHT22;13508;50.734;4.232;2022-09-13T16:54:49;22.90;99.90
25652;DHT22;13508;50.734;4.232;2022-09-13T16:57:54;22.70;99.90
25652;DHT22;13508;50.734;4.232;2022-09-13T17:00:57;22.40;99.90
25652;DHT22;13508;50.734;4.232;2022-09-13T17:04:01;22.10;99.90
25652;DHT22;13508;50.734;4.232;2022-09-13T17:07:05;22.20;99.90
25652;DHT22;13508;50.734;4.232;2022-09-13T17:10:09;22.00;99.90
25652;DHT22;13508;50.734;4.232;2022-09-13T17:13:14;22.10;99.90
25652;DHT22;13508;50.734;4.232;2022-09-13T17:19:29;22.30;99.90
25652;DHT22;13508;50.734;4.232;2022-09-13T17:22:36;22.30;99.90
25652;DHT22;13508;50.734;4.232;2022-09-13T17:25:40;22.40;99.90
25652;DHT22;13508;50.734;4.232;2022-09-13T17:28:45;22.40;99.90
25652;DHT22;13508;50.734;4.232;2022-09-13T17:31:49;22.30;99.90
25652;DHT22;13508;50.734;4.232;2022-09-13T17:34:52;22.10;99.90
25652;DHT22;13508;50.734;4.232;2022-09-13T17:37:55;21.90;99.90
25652;DHT22;13508;50.734;4.232;2022-09-13T17:41:10;21.70;99.90
25652;DHT22;13508;50.734;4.232;2022-09-13T17:44:14;21.50;99.90
25652;DHT22;13508;50.734;4.232;2022-09-13T17:47:18;21.40;99.90
25652;DHT22;13508;50.734;4.232;2022-09-13T17:50:21;21.30;99.90
25652;DHT22;13508;50.734;4.232;2022-09-13T17:53:25;21.40;99.90
25652;DHT22;13508;50.734;4.232;2022-09-13T17:56:30;21.50;99.90
25652;DHT22;13508;50.734;4.232;2022-09-13T17:59:35;21.40;99.90
25652;DHT22;13508;50.734;4.232;2022-09-13T18:02:43;21.20;99.90
25652;DHT22;13508;50.734;4.232;2022-09-13T18:05:46;21.10;99.90
25652;DHT22;13508;50.734;4.232;2022-09-13T18:08:52;21.20;99.90
25652;DHT22;13508;50.734;4.232;2022-09-13T18:11:56;21.30;99.90
25652;DHT22;13508;50.734;4.232;2022-09-13T18:14:59;21.30;99.90
25652;DHT22;13508;50.734;4.232;2022-09-13T18:18:03;21.30;99.90
25652;DHT22;13508;50.734;4.232;2022-09-13T18:21:07;21.20;99.90
25652;DHT22;13508;50.734;4.232;2022-09-13T18:24:10;21.10;99.90
25652;DHT22;13508;50.734;4.232;2022-09-13T18:27:14;21.10;99.90
25652;DHT22;13508;50.734;4.232;2022-09-13T18:30:17;21.40;99.90
25652;DHT22;13508;50.734;4.232;2022-09-13T18:33:21;21.70;99.90
25652;DHT22;13508;50.734;4.232;2022-09-13T18:36:26;21.60;99.90
25652;DHT22;13508;50.734;4.232;2022-09-13T18:39:30;21.40;99.90
25652;DHT22;13508;50.734;4.232;2022-09-13T18:42:33;21.50;99.90
25652;DHT22;13508;50.734;4.232;2022-09-13T18:45:36;21.50;99.90
25652;DHT22;13508;50.734;4.232;2022-09-13T18:48:45;21.30;99.90
25652;DHT22;13508;50.734;4.232;2022-09-13T18:51:48;21.30;99.90
25652;DHT22;13508;50.734;4.232;2022-09-13T18:54:52;21.20;99.90
25652;DHT22;13508;50.734;4.232;2022-09-13T18:57:55;21.30;99.90
25652;DHT22;13508;50.734;4.232;2022-09-13T19:01:13;21.40;99.90
25652;DHT22;13508;50.734;4.232;2022-09-13T19:04:19;21.30;99.90
25652;DHT22;13508;50.734;4.232;2022-09-13T19:07:24;21.20;99.90
25652;DHT22;13508;50.734;4.232;2022-09-13T19:10:27;21.20;99.90
25652;DHT22;13508;50.734;4.232;2022-09-13T19:13:34;21.20;99.90
25652;DHT22;13508;50.734;4.232;2022-09-13T19:16:38;21.00;99.90
25652;DHT22;13508;50.734;4.232;2022-09-13T19:19:41;21.10;99.90
25652;DHT22;13508;50.734;4.232;2022-09-13T19:22:45;21.10;99.90
25652;DHT22;13508;50.734;4.232;2022-09-13T19:25:48;21.20;99.90
25652;DHT22;13508;50.734;4.232;2022-09-13T19:28:58;21.10;99.90
25652;DHT22;13508;50.734;4.232;2022-09-13T19:32:05;21.20;99.90
25652;DHT22;13508;50.734;4.232;2022-09-13T19:35:08;21.20;99.90
25652;DHT22;13508;50.734;4.232;2022-09-13T19:38:12;21.00;99.90
25652;DHT22;13508;50.734;4.232;2022-09-13T19:41:17;20.90;99.90
25652;DHT22;13508;50.734;4.232;2022-09-13T19:44:20;21.30;99.90
25652;DHT22;13508;50.734;4.232;2022-09-13T19:47:24;21.20;99.90
25652;DHT22;13508;50.734;4.232;2022-09-13T19:50:27;21.00;99.90
25652;DHT22;13508;50.734;4.232;2022-09-13T19:53:34;20.90;99.90
25652;DHT22;13508;50.734;4.232;2022-09-13T19:56:41;20.80;99.90
25652;DHT22;13508;50.734;4.232;2022-09-13T19:59:44;20.90;99.90
25652;DHT22;13508;50.734;4.232;2022-09-13T20:02:48;20.70;99.90
25652;DHT22;13508;50.734;4.232;2022-09-13T20:05:51;20.70;99.90
25652;DHT22;13508;50.734;4.232;2022-09-13T20:08:59;20.70;99.90
25652;DHT22;13508;50.734;4.232;2022-09-13T20:12:02;20.70;99.90
25652;DHT22;13508;50.734;4.232;2022-09-13T20:15:09;20.70;99.90
25652;DHT22;13508;50.734;4.232;2022-09-13T20:18:12;20.70;99.90
25652;DHT22;13508;50.734;4.232;2022-09-13T20:21:18;20.70;99.90
25652;DHT22;13508;50.734;4.232;2022-09-13T20:24:21;20.60;99.90
25652;DHT22;13508;50.734;4.232;2022-09-13T20:27:25;20.60;99.90
25652;DHT22;13508;50.734;4.232;2022-09-13T20:30:28;20.50;99.90
25652;DHT22;13508;50.734;4.232;2022-09-13T20:33:31;20.50;99.90
25652;DHT22;13508;50.734;4.232;2022-09-13T20:36:35;20.50;99.90
25652;DHT22;13508;50.734;4.232;2022-09-13T20:39:39;20.50;99.90
25652;DHT22;13508;50.734;4.232;2022-09-13T20:42:42;20.70;99.90
25652;DHT22;13508;50.734;4.232;2022-09-13T20:45:54;20.70;99.90
25652;DHT22;13508;50.734;4.232;2022-09-13T20:49:00;20.70;99.90
25652;DHT22;13508;50.734;4.232;2022-09-13T20:52:03;21.00;99.90
25652;DHT22;13508;50.734;4.232;2022-09-13T20:55:07;21.00;99.90
25652;DHT22;13508;50.734;4.232;2022-09-13T20:58:10;20.90;99.90
25652;DHT22;13508;50.734;4.232;2022-09-13T21:01:16;20.80;99.90
25652;DHT22;13508;50.734;4.232;2022-09-13T21:04:21;20.70;99.90
25652;DHT22;13508;50.734;4.232;2022-09-13T21:07:25;20.70;99.90
25652;DHT22;13508;50.734;4.232;2022-09-13T21:11:01;20.70;99.90
25652;DHT22;13508;50.734;4.232;2022-09-13T21:14:07;20.90;99.90
25652;DHT22;13508;50.734;4.232;2022-09-13T21:17:10;21.00;99.90
25652;DHT22;13508;50.734;4.232;2022-09-13T21:20:14;21.10;99.90
25652;DHT22;13508;50.734;4.232;2022-09-13T21:23:20;21.20;99.90
25652;DHT22;13508;50.734;4.232;2022-09-13T21:26:25;20.80;99.90
25652;DHT22;13508;50.734;4.232;2022-09-13T21:29:29;20.60;99.90
25652;DHT22;13508;50.734;4.232;2022-09-13T21:32:32;20.70;99.90
25652;DHT22;13508;50.734;4.232;2022-09-13T21:35:39;20.70;99.90
25652;DHT22;13508;50.734;4.232;2022-09-13T21:38:42;20.80;99.90
25652;DHT22;13508;50.734;4.232;2022-09-13T21:41:46;20.60;99.90
25652;DHT22;13508;50.734;4.232;2022-09-13T21:44:49;20.60;99.90
25652;DHT22;13508;50.734;4.232;2022-09-13T21:47:52;20.60;99.90
25652;DHT22;13508;50.734;4.232;2022-09-13T21:51:01;20.60;99.90
25652;DHT22;13508;50.734;4.232;2022-09-13T21:54:08;20.70;99.90
25652;DHT22;13508;50.734;4.232;2022-09-13T21:57:12;20.70;99.90
25652;DHT22;13508;50.734;4.232;2022-09-13T22:00:15;20.70;99.90
25652;DHT22;13508;50.734;4.232;2022-09-13T22:03:18;20.70;99.90
25652;DHT22;13508;50.734;4.232;2022-09-13T22:06:22;20.70;99.90
25652;DHT22;13508;50.734;4.232;2022-09-13T22:09:26;20.70;99.90
25652;DHT22;13508;50.734;4.232;2022-09-13T22:12:29;20.60;99.90
25652;DHT22;13508;50.734;4.232;2022-09-13T22:15:33;20.50;99.90
25652;DHT22;13508;50.734;4.232;2022-09-13T22:18:40;20.40;99.90
25652;DHT22;13508;50.734;4.232;2022-09-13T22:21:46;20.50;99.90
25652;DHT22;13508;50.734;4.232;2022-09-13T22:24:49;20.40;99.90